sensor_id;sensor_type;location;lat;lon;timestamp;temperature;humidity
12885;DHT22;6510;51.362;7.370;2023-07-13T00:01:31;15.70;99.90
12885;DHT22;6510;51.362;7.370;2023-07-13T00:03:57;15.70;99.90
12885;DHT22;6510;51.362;7.370;2023-07-13T00:06:23;15.60;99.90
12885;DHT22;6510;51.362;7.370;2023-07-13T00:08:49;15.60;99.90
12885;DHT22;6510;51.362;7.370;2023-07-13T00:11:16;15.50;99.90
12885;DHT22;6510;51.362;7.370;2023-07-13T00:13:42;15.40;99.90
12885;DHT22;6510;51.362;7.370;2023-07-13T00:16:10;15.30;99.90
12885;DHT22;6510;51.362;7.370;2023-07-13T00:18:35;15.30;99.90
12885;DHT22;6510;51.362;7.370;2023-07-13T00:21:02;15.20;99.90
12885;DHT22;6510;51.362;7.370;2023-07-13T00:23:35;15.20;99.90
12885;DHT22;6510;51.362;7.370;2023-07-13T00:26:02;15.20;99.90
12885;DHT22;6510;51.362;7.370;2023-07-13T00:28:28;15.20;99.90
12885;DHT22;6510;51.362;7.370;2023-07-13T00:30:54;15.10;99.90
12885;DHT22;6510;51.362;7.370;2023-07-13T00:33:20;15.10;99.90
12885;DHT22;6510;51.362;7.370;2023-07-13T00:35:45;15.10;99.90
12885;DHT22;6510;51.362;7.370;2023-07-13T00:38:11;15.00;99.90
12885;DHT22;6510;51.362;7.370;2023-07-13T00:40:37;15.00;99.90
12885;DHT22;6510;51.362;7.370;2023-07-13T00:43:09;15.00;99.90
12885;DHT22;6510;51.362;7.370;2023-07-13T00:48:15;15.00;99.90
12885;DHT22;6510;51.362;7.370;2023-07-13T00:50:44;14.90;99.90
12885;DHT22;6510;51.362;7.370;2023-07-13T00:53:10;14.90;99.90
12885;DHT22;6510;51.362;7.370;2023-07-13T00:55:37;14.90;99.90
12885;DHT22;6510;51.362;7.370;2023-07-13T00:58:03;14.90;99.90
12885;DHT22;6510;51.362;7.370;2023-07-13T01:00:30;14.90;99.90
12885;DHT22;6510;51.362;7.370;2023-07-13T01:02:57;14.80;99.90
12885;DHT22;6510;51.362;7.370;2023-07-13T01:05:23;14.80;99.90
12885;DHT22;6510;51.362;7.370;2023-07-13T01:07:51;14.80;99.90
12885;DHT22;6510;51.362;7.370;2023-07-13T01:10:20;14.80;99.90
12885;DHT22;6510;51.362;7.370;2023-07-13T01:12:46;14.80;99.90
12885;DHT22;6510;51.362;7.370;2023-07-13T01:15:42;14.80;99.90
12885;DHT22;6510;51.362;7.370;2023-07-13T01:18:11;14.70;99.90
12885;DHT22;6510;51.362;7.370;2023-07-13T01:20:37;14.70;99.90
12885;DHT22;6510;51.362;7.370;2023-07-13T01:23:08;14.70;99.90
12885;DHT22;6510;51.362;7.370;2023-07-13T01:25:36;14.60;99.90
12885;DHT22;6510;51.362;7.370;2023-07-13T01:28:03;14.60;99.90
12885;DHT22;6510;51.362;7.370;2023-07-13T01:30:29;14.60;99.90
12885;DHT22;6510;51.362;7.370;2023-07-13T01:32:55;14.60;99.90
12885;DHT22;6510;51.362;7.370;2023-07-13T01:35:20;14.50;99.90
12885;DHT22;6510;51.362;7.370;2023-07-13T01:37:46;14.50;99.90
12885;DHT22;6510;51.362;7.370;2023-07-13T01:40:12;14.50;99.90
12885;DHT22;6510;51.362;7.370;2023-07-13T01:42:38;14.50;99.90
12885;DHT22;6510;51.362;7.370;2023-07-13T01:45:04;14.40;99.90
12885;DHT22;6510;51.362;7.370;2023-07-13T01:47:30;14.40;99.90
12885;DHT22;6510;51.362;7.370;2023-07-13T01:49:57;14.40;99.90
12885;DHT22;6510;51.362;7.370;2023-07-13T01:52:22;14.40;99.90
12885;DHT22;6510;51.362;7.370;2023-07-13T01:54:48;14.40;99.90
12885;DHT22;6510;51.362;7.370;2023-07-13T01:57:14;14.30;99.90
12885;DHT22;6510;51.362;7.370;2023-07-13T01:59:39;14.30;99.90
12885;DHT22;6510;51.362;7.370;2023-07-13T02:02:07;14.30;99.90
12885;DHT22;6510;51.362;7.370;2023-07-13T02:04:33;14.20;99.90
12885;DHT22;6510;51.362;7.370;2023-07-13T02:06:59;14.10;99.90
12885;DHT22;6510;51.362;7.370;2023-07-13T02:09:24;14.10;99.90
12885;DHT22;6510;51.362;7.370;2023-07-13T02:11:50;14.00;99.90
12885;DHT22;6510;51.362;7.370;2023-07-13T02:14:16;14.10;99.90
12885;DHT22;6510;51.362;7.370;2023-07-13T02:16:42;14.10;99.90
12885;DHT22;6510;51.362;7.370;2023-07-13T02:19:08;14.10;99.90
12885;DHT22;6510;51.362;7.370;2023-07-13T02:21:34;14.10;99.90
12885;DHT22;6510;51.362;7.370;2023-07-13T02:24:00;14.10;99.90
12885;DHT22;6510;51.362;7.370;2023-07-13T02:26:26;14.00;99.90
12885;DHT22;6510;51.362;7.370;2023-07-13T02:28:52;13.90;99.90
12885;DHT22;6510;51.362;7.370;2023-07-13T02:31:18;13.90;99.90
12885;DHT22;6510;51.362;7.370;2023-07-13T02:33:44;13.90;99.90
12885;DHT22;6510;51.362;7.370;2023-07-13T02:36:10;13.90;99.90
12885;DHT22;6510;51.362;7.370;2023-07-13T02:38:37;13.80;99.90
12885;DHT22;6510;51.362;7.370;2023-07-13T02:41:07;13.90;99.90
12885;DHT22;6510;51.362;7.370;2023-07-13T02:43:33;13.90;99.90
12885;DHT22;6510;51.362;7.370;2023-07-13T02:46:00;13.80;99.90
12885;DHT22;6510;51.362;7.370;2023-07-13T02:48:35;13.70;99.90
12885;DHT22;6510;51.362;7.370;2023-07-13T02:51:04;13.70;99.90
12885;DHT22;6510;51.362;7.370;2023-07-13T02:53:30;13.70;99.90
12885;DHT22;6510;51.362;7.370;2023-07-13T02:55:55;13.60;99.90
12885;DHT22;6510;51.362;7.370;2023-07-13T02:58:21;13.60;99.90
12885;DHT22;6510;51.362;7.370;2023-07-13T03:00:48;13.60;99.90
12885;DHT22;6510;51.362;7.370;2023-07-13T03:03:15;13.60;99.90
12885;DHT22;6510;51.362;7.370;2023-07-13T03:05:42;13.60;99.90
12885;DHT22;6510;51.362;7.370;2023-07-13T03:08:09;13.50;99.90
12885;DHT22;6510;51.362;7.370;2023-07-13T03:10:35;13.50;99.90
12885;DHT22;6510;51.362;7.370;2023-07-13T03:13:01;13.50;99.90
12885;DHT22;6510;51.362;7.370;2023-07-13T03:15:27;13.50;99.90
12885;DHT22;6510;51.362;7.370;2023-07-13T03:17:53;13.50;99.90
12885;DHT22;6510;51.362;7.370;2023-07-13T03:20:19;13.50;99.90
12885;DHT22;6510;51.362;7.370;2023-07-13T03:22:45;13.50;99.90
12885;DHT22;6510;51.362;7.370;2023-07-13T03:25:10;13.60;99.90
12885;DHT22;6510;51.362;7.370;2023-07-13T03:27:36;13.50;99.90
12885;DHT22;6510;51.362;7.370;2023-07-13T03:30:03;13.50;99.90
12885;DHT22;6510;51.362;7.370;2023-07-13T03:32:29;13.50;99.90
12885;DHT22;6510;51.362;7.370;2023-07-13T03:34:55;13.50;99.90
12885;DHT22;6510;51.362;7.370;2023-07-13T03:37:20;13.50;99.90
12885;DHT22;6510;51.362;7.370;2023-07-13T03:39:46;13.40;99.90
12885;DHT22;6510;51.362;7.370;2023-07-13T03:42:12;13.50;99.90
12885;DHT22;6510;51.362;7.370;2023-07-13T03:44:39;13.40;99.90
12885;DHT22;6510;51.362;7.370;2023-07-13T03:47:05;13.50;99.90
12885;DHT22;6510;51.362;7.370;2023-07-13T03:49:31;13.50;99.90
12885;DHT22;6510;51.362;7.370;2023-07-13T03:51:57;13.60;99.90
12885;DHT22;6510;51.362;7.370;2023-07-13T03:54:23;13.60;99.90
12885;DHT22;6510;51.362;7.370;2023-07-13T03:56:49;13.60;99.90
12885;DHT22;6510;51.362;7.370;2023-07-13T03:59:14;13.60;99.90
12885;DHT22;6510;51.362;7.370;2023-07-13T04:01:40;13.70;99.90
12885;DHT22;6510;51.362;7.370;2023-07-13T04:04:06;13.70;99.90
12885;DHT22;6510;51.362;7.370;2023-07-13T04:06:32;13.80;99.90
12885;DHT22;6510;51.362;7.370;2023-07-13T04:09:00;13.80;99.90
12885;DHT22;6510;51.362;7.370;2023-07-13T04:11:28;13.90;99.90
12885;DHT22;6510;51.362;7.370;2023-07-13T04:13:54;13.90;99.90
12885;DHT22;6510;51.362;7.370;2023-07-13T04:16:20;13.90;99.90
12885;DHT22;6510;51.362;7.370;2023-07-13T04:18:47;14.00;99.90
12885;DHT22;6510;51.362;7.370;2023-07-13T04:21:14;14.00;99.90
12885;DHT22;6510;51.362;7.370;2023-07-13T04:23:40;14.00;99.90
12885;DHT22;6510;51.362;7.370;2023-07-13T04:26:15;14.10;99.90
12885;DHT22;6510;51.362;7.370;2023-07-13T04:28:40;14.10;99.90
12885;DHT22;6510;51.362;7.370;2023-07-13T04:31:06;14.20;99.90
12885;DHT22;6510;51.362;7.370;2023-07-13T04:33:31;14.30;99.90
12885;DHT22;6510;51.362;7.370;2023-07-13T04:35:57;14.40;99.90
12885;DHT22;6510;51.362;7.370;2023-07-13T04:38:26;14.40;99.90
12885;DHT22;6510;51.362;7.370;2023-07-13T04:40:58;14.40;99.90
12885;DHT22;6510;51.362;7.370;2023-07-13T04:43:25;14.40;99.90
12885;DHT22;6510;51.362;7.370;2023-07-13T04:45:52;14.50;99.90
12885;DHT22;6510;51.362;7.370;2023-07-13T04:48:18;14.60;99.90
12885;DHT22;6510;51.362;7.370;2023-07-13T04:50:45;14.70;99.90
12885;DHT22;6510;51.362;7.370;2023-07-13T04:53:11;14.70;99.90
12885;DHT22;6510;51.362;7.370;2023-07-13T04:55:37;14.80;99.90
12885;DHT22;6510;51.362;7.370;2023-07-13T04:58:04;14.90;99.90
12885;DHT22;6510;51.362;7.370;2023-07-13T05:00:30;15.00;99.90
12885;DHT22;6510;51.362;7.370;2023-07-13T05:02:57;15.10;99.90
12885;DHT22;6510;51.362;7.370;2023-07-13T05:05:24;15.20;99.90
12885;DHT22;6510;51.362;7.370;2023-07-13T05:07:50;15.30;99.90
12885;DHT22;6510;51.362;7.370;2023-07-13T05:10:16;15.50;99.90
12885;DHT22;6510;51.362;7.370;2023-07-13T05:12:41;16.00;99.90
12885;DHT22;6510;51.362;7.370;2023-07-13T05:15:07;16.50;99.90
12885;DHT22;6510;51.362;7.370;2023-07-13T05:17:33;17.00;99.90
12885;DHT22;6510;51.362;7.370;2023-07-13T05:19:59;17.00;99.90
12885;DHT22;6510;51.362;7.370;2023-07-13T05:22:24;16.90;99.90
12885;DHT22;6510;51.362;7.370;2023-07-13T05:24:50;17.30;99.90
12885;DHT22;6510;51.362;7.370;2023-07-13T05:27:16;17.50;99.90
12885;DHT22;6510;51.362;7.370;2023-07-13T05:29:41;17.70;99.90
12885;DHT22;6510;51.362;7.370;2023-07-13T05:32:07;17.70;99.90
12885;DHT22;6510;51.362;7.370;2023-07-13T05:34:32;17.90;99.90
12885;DHT22;6510;51.362;7.370;2023-07-13T05:36:58;18.10;99.90
12885;DHT22;6510;51.362;7.370;2023-07-13T05:39:24;18.10;99.90
12885;DHT22;6510;51.362;7.370;2023-07-13T05:41:50;18.20;99.90
12885;DHT22;6510;51.362;7.370;2023-07-13T05:44:15;18.30;99.90
12885;DHT22;6510;51.362;7.370;2023-07-13T05:46:41;18.40;99.90
12885;DHT22;6510;51.362;7.370;2023-07-13T05:49:07;18.50;99.90
12885;DHT22;6510;51.362;7.370;2023-07-13T05:51:32;18.70;99.90
12885;DHT22;6510;51.362;7.370;2023-07-13T05:53:58;18.50;99.90
12885;DHT22;6510;51.362;7.370;2023-07-13T05:56:23;18.80;99.90
12885;DHT22;6510;51.362;7.370;2023-07-13T05:58:50;19.00;99.90
12885;DHT22;6510;51.362;7.370;2023-07-13T06:01:16;18.90;99.90
12885;DHT22;6510;51.362;7.370;2023-07-13T06:03:42;18.40;99.90
12885;DHT22;6510;51.362;7.370;2023-07-13T06:06:09;18.20;99.90
12885;DHT22;6510;51.362;7.370;2023-07-13T06:08:35;17.80;99.90
12885;DHT22;6510;51.362;7.370;2023-07-13T06:11:03;18.00;99.90
12885;DHT22;6510;51.362;7.370;2023-07-13T06:13:29;18.70;99.90
12885;DHT22;6510;51.362;7.370;2023-07-13T06:15:54;19.10;99.90
12885;DHT22;6510;51.362;7.370;2023-07-13T06:18:20;19.30;99.90
12885;DHT22;6510;51.362;7.370;2023-07-13T06:20:46;19.80;99.90
12885;DHT22;6510;51.362;7.370;2023-07-13T06:23:11;19.70;99.90
12885;DHT22;6510;51.362;7.370;2023-07-13T06:25:37;19.20;99.90
12885;DHT22;6510;51.362;7.370;2023-07-13T06:28:02;18.70;99.90
12885;DHT22;6510;51.362;7.370;2023-07-13T06:30:28;18.40;99.90
12885;DHT22;6510;51.362;7.370;2023-07-13T06:32:54;18.20;99.90
12885;DHT22;6510;51.362;7.370;2023-07-13T06:35:19;18.20;99.90
12885;DHT22;6510;51.362;7.370;2023-07-13T06:37:45;18.20;99.90
12885;DHT22;6510;51.362;7.370;2023-07-13T06:40:12;18.20;99.90
12885;DHT22;6510;51.362;7.370;2023-07-13T06:42:38;18.90;99.90
12885;DHT22;6510;51.362;7.370;2023-07-13T06:45:04;19.10;99.90
12885;DHT22;6510;51.362;7.370;2023-07-13T06:47:30;19.20;99.90
12885;DHT22;6510;51.362;7.370;2023-07-13T06:49:55;19.70;99.90
12885;DHT22;6510;51.362;7.370;2023-07-13T06:52:21;20.40;99.90
12885;DHT22;6510;51.362;7.370;2023-07-13T06:54:47;20.70;99.90
12885;DHT22;6510;51.362;7.370;2023-07-13T06:57:12;20.40;99.90
12885;DHT22;6510;51.362;7.370;2023-07-13T06:59:38;20.00;99.90
12885;DHT22;6510;51.362;7.370;2023-07-13T07:02:04;19.70;99.90
12885;DHT22;6510;51.362;7.370;2023-07-13T07:04:30;20.20;99.90
12885;DHT22;6510;51.362;7.370;2023-07-13T07:06:55;20.70;99.90
12885;DHT22;6510;51.362;7.370;2023-07-13T07:09:21;21.40;99.90
12885;DHT22;6510;51.362;7.370;2023-07-13T07:11:46;21.80;99.90
12885;DHT22;6510;51.362;7.370;2023-07-13T07:14:12;21.90;99.90
12885;DHT22;6510;51.362;7.370;2023-07-13T07:16:37;22.10;99.90
12885;DHT22;6510;51.362;7.370;2023-07-13T07:19:03;22.40;99.90
12885;DHT22;6510;51.362;7.370;2023-07-13T07:21:29;22.60;99.90
12885;DHT22;6510;51.362;7.370;2023-07-13T07:23:56;22.60;99.90
12885;DHT22;6510;51.362;7.370;2023-07-13T07:26:22;22.60;99.90
12885;DHT22;6510;51.362;7.370;2023-07-13T07:28:48;22.70;99.90
12885;DHT22;6510;51.362;7.370;2023-07-13T07:31:14;22.90;99.90
12885;DHT22;6510;51.362;7.370;2023-07-13T07:33:39;22.40;99.90
12885;DHT22;6510;51.362;7.370;2023-07-13T07:36:05;23.00;99.90
12885;DHT22;6510;51.362;7.370;2023-07-13T07:38:37;23.10;99.90
12885;DHT22;6510;51.362;7.370;2023-07-13T07:41:12;22.90;99.90
12885;DHT22;6510;51.362;7.370;2023-07-13T07:43:37;23.40;99.90
12885;DHT22;6510;51.362;7.370;2023-07-13T07:46:03;24.10;99.90
12885;DHT22;6510;51.362;7.370;2023-07-13T07:48:30;24.70;99.90
12885;DHT22;6510;51.362;7.370;2023-07-13T07:50:55;24.30;99.90
12885;DHT22;6510;51.362;7.370;2023-07-13T07:53:21;24.30;99.90
12885;DHT22;6510;51.362;7.370;2023-07-13T07:55:46;24.90;99.90
12885;DHT22;6510;51.362;7.370;2023-07-13T07:58:13;24.70;99.90
12885;DHT22;6510;51.362;7.370;2023-07-13T08:00:39;23.70;99.90
12885;DHT22;6510;51.362;7.370;2023-07-13T08:03:05;22.50;99.90
12885;DHT22;6510;51.362;7.370;2023-07-13T08:05:31;21.70;99.90
12885;DHT22;6510;51.362;7.370;2023-07-13T08:07:57;21.60;99.90
12885;DHT22;6510;51.362;7.370;2023-07-13T08:10:22;21.70;99.90
12885;DHT22;6510;51.362;7.370;2023-07-13T08:12:48;21.10;99.90
12885;DHT22;6510;51.362;7.370;2023-07-13T08:15:16;21.20;99.90
12885;DHT22;6510;51.362;7.370;2023-07-13T08:17:42;22.30;99.90
12885;DHT22;6510;51.362;7.370;2023-07-13T08:20:08;22.90;99.90
12885;DHT22;6510;51.362;7.370;2023-07-13T08:22:35;22.20;99.90
12885;DHT22;6510;51.362;7.370;2023-07-13T08:25:02;22.50;99.90
12885;DHT22;6510;51.362;7.370;2023-07-13T08:27:28;22.30;99.90
12885;DHT22;6510;51.362;7.370;2023-07-13T08:29:54;21.90;99.90
12885;DHT22;6510;51.362;7.370;2023-07-13T08:32:22;22.10;99.90
12885;DHT22;6510;51.362;7.370;2023-07-13T08:34:48;22.60;99.90
12885;DHT22;6510;51.362;7.370;2023-07-13T08:37:14;23.30;99.90
12885;DHT22;6510;51.362;7.370;2023-07-13T08:39:40;24.20;99.90
12885;DHT22;6510;51.362;7.370;2023-07-13T08:42:13;23.90;99.90
12885;DHT22;6510;51.362;7.370;2023-07-13T08:44:54;23.90;99.90
12885;DHT22;6510;51.362;7.370;2023-07-13T08:47:23;23.00;99.90
12885;DHT22;6510;51.362;7.370;2023-07-13T08:49:50;23.50;99.90
12885;DHT22;6510;51.362;7.370;2023-07-13T08:52:38;23.30;99.90
12885;DHT22;6510;51.362;7.370;2023-07-13T08:55:21;23.90;99.90
12885;DHT22;6510;51.362;7.370;2023-07-13T08:57:53;24.70;99.90
12885;DHT22;6510;51.362;7.370;2023-07-13T09:00:20;25.30;99.90
12885;DHT22;6510;51.362;7.370;2023-07-13T09:02:56;25.40;99.90
12885;DHT22;6510;51.362;7.370;2023-07-13T09:05:38;24.50;99.90
12885;DHT22;6510;51.362;7.370;2023-07-13T09:14:16;23.50;99.90
12885;DHT22;6510;51.362;7.370;2023-07-13T09:16:48;24.50;99.90
12885;DHT22;6510;51.362;7.370;2023-07-13T09:19:21;24.30;99.90
12885;DHT22;6510;51.362;7.370;2023-07-13T09:21:51;23.50;99.90
12885;DHT22;6510;51.362;7.370;2023-07-13T09:24:53;22.80;99.90
12885;DHT22;6510;51.362;7.370;2023-07-13T09:27:30;23.10;99.90
12885;DHT22;6510;51.362;7.370;2023-07-13T09:30:20;24.30;99.90
12885;DHT22;6510;51.362;7.370;2023-07-13T09:32:51;25.00;99.90
12885;DHT22;6510;51.362;7.370;2023-07-13T09:35:22;25.20;99.90
12885;DHT22;6510;51.362;7.370;2023-07-13T09:37:49;26.00;99.90
12885;DHT22;6510;51.362;7.370;2023-07-13T09:40:30;26.80;99.90
12885;DHT22;6510;51.362;7.370;2023-07-13T09:42:59;26.00;99.90
12885;DHT22;6510;51.362;7.370;2023-07-13T09:45:30;26.10;99.90
12885;DHT22;6510;51.362;7.370;2023-07-13T09:48:00;26.60;99.90
12885;DHT22;6510;51.362;7.370;2023-07-13T09:50:28;26.80;99.90
12885;DHT22;6510;51.362;7.370;2023-07-13T09:52:54;27.30;99.90
12885;DHT22;6510;51.362;7.370;2023-07-13T09:55:30;26.60;99.90
12885;DHT22;6510;51.362;7.370;2023-07-13T09:57:56;26.40;99.90
12885;DHT22;6510;51.362;7.370;2023-07-13T10:00:29;25.20;99.90
12885;DHT22;6510;51.362;7.370;2023-07-13T10:03:13;24.60;99.90
12885;DHT22;6510;51.362;7.370;2023-07-13T10:05:45;23.50;99.90
12885;DHT22;6510;51.362;7.370;2023-07-13T10:10:45;26.30;99.90
12885;DHT22;6510;51.362;7.370;2023-07-13T10:13:32;26.50;99.90
12885;DHT22;6510;51.362;7.370;2023-07-13T10:16:00;27.00;99.90
12885;DHT22;6510;51.362;7.370;2023-07-13T10:18:26;27.70;98.30
12885;DHT22;6510;51.362;7.370;2023-07-13T10:21:11;28.00;96.90
12885;DHT22;6510;51.362;7.370;2023-07-13T10:23:37;26.70;98.40
12885;DHT22;6510;51.362;7.370;2023-07-13T10:26:03;26.90;99.40
12885;DHT22;6510;51.362;7.370;2023-07-13T10:28:35;26.60;99.90
12885;DHT22;6510;51.362;7.370;2023-07-13T10:31:02;27.10;99.40
12885;DHT22;6510;51.362;7.370;2023-07-13T10:33:30;28.60;96.10
12885;DHT22;6510;51.362;7.370;2023-07-13T10:36:28;27.90;95.40
12885;DHT22;6510;51.362;7.370;2023-07-13T10:38:56;28.10;95.30
12885;DHT22;6510;51.362;7.370;2023-07-13T10:41:24;28.80;95.50
12885;DHT22;6510;51.362;7.370;2023-07-13T10:43:52;28.80;94.50
12885;DHT22;6510;51.362;7.370;2023-07-13T10:46:22;28.90;95.00
12885;DHT22;6510;51.362;7.370;2023-07-13T10:48:55;29.20;92.10
12885;DHT22;6510;51.362;7.370;2023-07-13T10:51:22;27.20;94.80
12885;DHT22;6510;51.362;7.370;2023-07-13T10:56:38;27.90;96.30
12885;DHT22;6510;51.362;7.370;2023-07-13T11:04:20;27.80;95.80
12885;DHT22;6510;51.362;7.370;2023-07-13T11:06:48;28.90;95.60
12885;DHT22;6510;51.362;7.370;2023-07-13T11:09:32;30.00;94.10
12885;DHT22;6510;51.362;7.370;2023-07-13T11:12:03;27.60;94.30
12885;DHT22;6510;51.362;7.370;2023-07-13T11:15:04;25.10;98.70
12885;DHT22;6510;51.362;7.370;2023-07-13T11:20:21;24.10;99.90
12885;DHT22;6510;51.362;7.370;2023-07-13T11:22:51;25.20;99.90
12885;DHT22;6510;51.362;7.370;2023-07-13T11:33:09;26.80;95.90
12885;DHT22;6510;51.362;7.370;2023-07-13T11:36:03;27.40;96.90
12885;DHT22;6510;51.362;7.370;2023-07-13T11:38:35;28.80;94.10
12885;DHT22;6510;51.362;7.370;2023-07-13T11:41:05;28.70;94.30
12885;DHT22;6510;51.362;7.370;2023-07-13T11:43:31;28.40;92.80
12885;DHT22;6510;51.362;7.370;2023-07-13T11:46:11;26.30;95.70
12885;DHT22;6510;51.362;7.370;2023-07-13T11:48:37;25.50;97.30
12885;DHT22;6510;51.362;7.370;2023-07-13T11:51:04;26.30;97.90
12885;DHT22;6510;51.362;7.370;2023-07-13T11:53:37;27.50;96.50
12885;DHT22;6510;51.362;7.370;2023-07-13T11:56:03;29.00;95.20
12885;DHT22;6510;51.362;7.370;2023-07-13T11:58:32;30.50;92.70
12885;DHT22;6510;51.362;7.370;2023-07-13T12:01:00;29.40;91.80
12885;DHT22;6510;51.362;7.370;2023-07-13T12:03:28;28.50;91.80
12885;DHT22;6510;51.362;7.370;2023-07-13T12:06:04;29.40;92.60
12885;DHT22;6510;51.362;7.370;2023-07-13T12:08:38;30.40;91.80
12885;DHT22;6510;51.362;7.370;2023-07-13T12:11:17;29.90;90.20
12885;DHT22;6510;51.362;7.370;2023-07-13T12:13:44;30.40;89.70
12885;DHT22;6510;51.362;7.370;2023-07-13T12:18:52;30.00;90.10
12885;DHT22;6510;51.362;7.370;2023-07-13T12:21:19;28.90;90.40
12885;DHT22;6510;51.362;7.370;2023-07-13T12:23:48;27.40;92.00
12885;DHT22;6510;51.362;7.370;2023-07-13T12:26:15;27.40;94.00
12885;DHT22;6510;51.362;7.370;2023-07-13T12:28:52;28.90;92.70
12885;DHT22;6510;51.362;7.370;2023-07-13T12:32:07;29.30;89.10
12885;DHT22;6510;51.362;7.370;2023-07-13T12:34:24;27.80;90.70
12885;DHT22;6510;51.362;7.370;2023-07-13T12:37:00;27.00;92.20
12885;DHT22;6510;51.362;7.370;2023-07-13T12:39:38;25.70;95.40
12885;DHT22;6510;51.362;7.370;2023-07-13T12:44:46;27.60;93.90
12885;DHT22;6510;51.362;7.370;2023-07-13T12:47:13;27.90;92.60
12885;DHT22;6510;51.362;7.370;2023-07-13T12:49:49;28.30;92.30
12885;DHT22;6510;51.362;7.370;2023-07-13T12:52:27;27.50;91.90
12885;DHT22;6510;51.362;7.370;2023-07-13T12:55:19;26.80;92.30
12885;DHT22;6510;51.362;7.370;2023-07-13T12:57:57;27.30;92.40
12885;DHT22;6510;51.362;7.370;2023-07-13T13:00:31;26.80;93.40
12885;DHT22;6510;51.362;7.370;2023-07-13T13:03:19;28.40;92.50
12885;DHT22;6510;51.362;7.370;2023-07-13T13:05:46;28.90;90.80
12885;DHT22;6510;51.362;7.370;2023-07-13T13:08:13;29.60;90.50
12885;DHT22;6510;51.362;7.370;2023-07-13T13:10:39;29.60;86.60
12885;DHT22;6510;51.362;7.370;2023-07-13T13:13:04;30.10;87.40
12885;DHT22;6510;51.362;7.370;2023-07-13T13:15:30;30.00;87.20
12885;DHT22;6510;51.362;7.370;2023-07-13T13:17:56;28.80;90.10
12885;DHT22;6510;51.362;7.370;2023-07-13T13:20:24;28.00;89.90
12885;DHT22;6510;51.362;7.370;2023-07-13T13:22:51;27.80;90.80
12885;DHT22;6510;51.362;7.370;2023-07-13T13:25:18;27.50;92.60
12885;DHT22;6510;51.362;7.370;2023-07-13T13:27:47;28.40;91.30
12885;DHT22;6510;51.362;7.370;2023-07-13T13:30:14;26.90;92.10
12885;DHT22;6510;51.362;7.370;2023-07-13T13:32:45;28.40;91.20
12885;DHT22;6510;51.362;7.370;2023-07-13T13:35:16;27.40;91.60
12885;DHT22;6510;51.362;7.370;2023-07-13T13:37:43;24.90;94.50
12885;DHT22;6510;51.362;7.370;2023-07-13T13:42:39;23.50;99.40
12885;DHT22;6510;51.362;7.370;2023-07-13T13:45:06;23.40;99.40
12885;DHT22;6510;51.362;7.370;2023-07-13T13:47:33;23.60;99.00
12885;DHT22;6510;51.362;7.370;2023-07-13T13:50:01;23.50;99.70
12885;DHT22;6510;51.362;7.370;2023-07-13T13:52:27;23.40;99.00
12885;DHT22;6510;51.362;7.370;2023-07-13T13:54:53;23.50;99.00
12885;DHT22;6510;51.362;7.370;2023-07-13T13:57:25;24.00;98.00
12885;DHT22;6510;51.362;7.370;2023-07-13T13:59:51;24.90;96.50
12885;DHT22;6510;51.362;7.370;2023-07-13T14:02:26;24.80;95.90
12885;DHT22;6510;51.362;7.370;2023-07-13T14:05:02;24.50;96.10
12885;DHT22;6510;51.362;7.370;2023-07-13T14:07:28;24.60;96.40
12885;DHT22;6510;51.362;7.370;2023-07-13T14:09:59;24.60;96.10
12885;DHT22;6510;51.362;7.370;2023-07-13T14:12:27;25.90;95.00
12885;DHT22;6510;51.362;7.370;2023-07-13T14:14:55;26.40;95.10
12885;DHT22;6510;51.362;7.370;2023-07-13T14:17:31;27.90;92.60
12885;DHT22;6510;51.362;7.370;2023-07-13T14:19:58;28.90;90.80
12885;DHT22;6510;51.362;7.370;2023-07-13T14:22:25;29.30;90.80
12885;DHT22;6510;51.362;7.370;2023-07-13T14:24:54;27.80;89.80
12885;DHT22;6510;51.362;7.370;2023-07-13T14:27:21;26.00;92.60
12885;DHT22;6510;51.362;7.370;2023-07-13T14:29:47;24.60;94.60
12885;DHT22;6510;51.362;7.370;2023-07-13T14:32:13;24.00;96.00
12885;DHT22;6510;51.362;7.370;2023-07-13T14:34:39;23.50;97.00
12885;DHT22;6510;51.362;7.370;2023-07-13T14:37:05;23.20;97.90
12885;DHT22;6510;51.362;7.370;2023-07-13T14:39:37;23.00;98.90
12885;DHT22;6510;51.362;7.370;2023-07-13T14:42:08;22.80;99.90
12885;DHT22;6510;51.362;7.370;2023-07-13T14:44:34;22.70;99.90
12885;DHT22;6510;51.362;7.370;2023-07-13T14:47:02;22.30;99.90
12885;DHT22;6510;51.362;7.370;2023-07-13T14:49:39;21.00;99.90
12885;DHT22;6510;51.362;7.370;2023-07-13T14:54:39;19.70;99.90
12885;DHT22;6510;51.362;7.370;2023-07-13T14:57:13;20.00;99.90
12885;DHT22;6510;51.362;7.370;2023-07-13T14:59:40;20.40;99.90
12885;DHT22;6510;51.362;7.370;2023-07-13T15:02:21;21.00;99.90
12885;DHT22;6510;51.362;7.370;2023-07-13T15:04:51;21.70;99.90
12885;DHT22;6510;51.362;7.370;2023-07-13T15:07:20;22.10;99.90
12885;DHT22;6510;51.362;7.370;2023-07-13T15:09:46;22.30;99.90
12885;DHT22;6510;51.362;7.370;2023-07-13T15:12:13;22.20;99.90
12885;DHT22;6510;51.362;7.370;2023-07-13T15:14:39;22.10;99.90
12885;DHT22;6510;51.362;7.370;2023-07-13T15:17:08;21.90;99.90
12885;DHT22;6510;51.362;7.370;2023-07-13T15:19:42;22.30;99.90
12885;DHT22;6510;51.362;7.370;2023-07-13T15:22:09;22.40;99.90
12885;DHT22;6510;51.362;7.370;2023-07-13T15:24:35;22.30;99.90
12885;DHT22;6510;51.362;7.370;2023-07-13T15:27:04;22.00;99.90
12885;DHT22;6510;51.362;7.370;2023-07-13T15:29:29;22.10;99.90
12885;DHT22;6510;51.362;7.370;2023-07-13T15:31:55;22.10;99.90
12885;DHT22;6510;51.362;7.370;2023-07-13T15:34:23;22.00;99.90
12885;DHT22;6510;51.362;7.370;2023-07-13T15:36:50;22.10;99.90
12885;DHT22;6510;51.362;7.370;2023-07-13T15:39:16;22.10;99.90
12885;DHT22;6510;51.362;7.370;2023-07-13T15:41:43;21.80;99.90
12885;DHT22;6510;51.362;7.370;2023-07-13T15:44:23;22.10;99.90
12885;DHT22;6510;51.362;7.370;2023-07-13T15:46:49;22.10;99.90
12885;DHT22;6510;51.362;7.370;2023-07-13T15:49:15;22.20;99.90
12885;DHT22;6510;51.362;7.370;2023-07-13T15:51:41;22.10;99.90
12885;DHT22;6510;51.362;7.370;2023-07-13T15:54:12;22.10;99.90
12885;DHT22;6510;51.362;7.370;2023-07-13T15:56:38;22.20;99.90
12885;DHT22;6510;51.362;7.370;2023-07-13T15:59:07;22.20;99.90
12885;DHT22;6510;51.362;7.370;2023-07-13T16:01:34;22.10;99.90
12885;DHT22;6510;51.362;7.370;2023-07-13T16:04:00;21.80;99.90
12885;DHT22;6510;51.362;7.370;2023-07-13T16:06:33;21.50;99.90
12885;DHT22;6510;51.362;7.370;2023-07-13T16:09:02;21.30;99.90
12885;DHT22;6510;51.362;7.370;2023-07-13T16:11:33;20.70;99.90
12885;DHT22;6510;51.362;7.370;2023-07-13T16:13:59;19.40;99.90
12885;DHT22;6510;51.362;7.370;2023-07-13T16:16:33;18.40;99.90
12885;DHT22;6510;51.362;7.370;2023-07-13T16:19:03;17.80;99.90
12885;DHT22;6510;51.362;7.370;2023-07-13T16:21:33;17.30;99.90
12885;DHT22;6510;51.362;7.370;2023-07-13T16:24:01;17.20;99.90
12885;DHT22;6510;51.362;7.370;2023-07-13T16:26:36;17.30;99.90
12885;DHT22;6510;51.362;7.370;2023-07-13T16:29:20;17.30;99.90
12885;DHT22;6510;51.362;7.370;2023-07-13T16:32:09;17.30;99.90
12885;DHT22;6510;51.362;7.370;2023-07-13T16:34:37;17.20;99.90